createdAt,value
2023-02-14T00:00:39.760Z,0.00
2023-02-14T00:01:39.770Z,0.00
2023-02-14T00:02:39.831Z,0.00
2023-02-14T00:03:39.795Z,0.00
2023-02-14T00:04:39.832Z,0.00
2023-02-14T00:05:39.815Z,0.00
2023-02-14T00:06:39.826Z,0.00
2023-02-14T00:07:39.838Z,0.00
2023-02-14T00:08:39.853Z,0.00
2023-02-14T00:09:39.863Z,0.00
2023-02-14T00:10:39.873Z,0.00
2023-02-14T00:11:39.884Z,0.00
2023-02-14T00:12:39.907Z,0.00
2023-02-14T00:13:39.925Z,0.00
2023-02-14T00:14:39.919Z,0.00
2023-02-14T00:15:39.933Z,0.00
2023-02-14T00:16:39.942Z,0.00
2023-02-14T00:17:39.959Z,0.00
2023-02-14T00:18:39.968Z,0.00
2023-02-14T00:19:39.978Z,0.00
2023-02-14T00:20:39.988Z,0.00
2023-02-14T00:21:40.005Z,0.00
2023-02-14T00:22:40.015Z,0.00
2023-02-14T00:23:40.027Z,0.00
2023-02-14T00:24:40.034Z,0.00
2023-02-14T00:25:40.053Z,0.00
2023-02-14T00:26:40.073Z,0.00
2023-02-14T00:27:40.069Z,0.00
2023-02-14T00:28:40.080Z,0.00
2023-02-14T00:29:40.091Z,0.00
2023-02-14T00:30:40.136Z,0.00
2023-02-14T00:31:40.184Z,0.00
2023-02-14T00:32:40.144Z,0.00
2023-02-14T00:33:40.142Z,0.00
2023-02-14T00:34:40.156Z,0.00
2023-02-14T00:35:40.162Z,0.00
2023-02-14T00:36:40.183Z,0.00
2023-02-14T00:37:40.184Z,0.00
2023-02-14T00:38:40.197Z,0.00
2023-02-14T00:39:40.207Z,0.00
2023-02-14T00:40:40.221Z,0.00
2023-02-14T00:41:40.265Z,0.00
2023-02-14T00:42:40.243Z,0.00
2023-02-14T00:43:40.257Z,0.00
2023-02-14T00:44:40.263Z,0.00
2023-02-14T00:45:40.328Z,0.00
2023-02-14T00:46:40.287Z,0.00
2023-02-14T00:47:40.312Z,0.00
2023-02-14T00:48:40.310Z,0.00
2023-02-14T00:49:40.334Z,0.00
2023-02-14T00:50:40.339Z,0.00
2023-02-14T00:51:40.347Z,0.00
2023-02-14T00:52:40.362Z,0.00
2023-02-14T00:53:40.375Z,0.00
2023-02-14T00:54:40.384Z,0.00
2023-02-14T00:55:40.396Z,0.00
2023-02-14T00:56:40.411Z,0.00
2023-02-14T00:57:40.413Z,0.00
2023-02-14T00:58:40.431Z,0.00
2023-02-14T00:59:40.444Z,0.00
2023-02-14T01:00:40.487Z,0.00
2023-02-14T01:01:40.462Z,0.00
2023-02-14T01:02:40.526Z,0.00
2023-02-14T01:03:40.491Z,0.00
2023-02-14T01:04:40.523Z,0.00
2023-02-14T01:05:40.508Z,0.00
2023-02-14T01:06:40.534Z,0.00
2023-02-14T01:07:40.530Z,0.00
2023-02-14T01:08:40.542Z,0.00
2023-02-14T01:09:40.553Z,0.00
2023-02-14T01:10:40.568Z,0.00
2023-02-14T01:11:40.577Z,0.00
2023-02-14T01:12:40.589Z,0.00
2023-02-14T01:13:40.608Z,0.00
2023-02-14T01:14:40.615Z,0.00
2023-02-14T01:15:40.624Z,0.00
2023-02-14T01:16:40.707Z,0.00
2023-02-14T01:17:40.650Z,0.00
2023-02-14T01:18:40.658Z,0.00
2023-02-14T01:19:40.671Z,0.00
2023-02-14T01:20:40.682Z,0.00
2023-02-14T01:21:40.699Z,0.00
2023-02-14T01:22:40.706Z,0.00
2023-02-14T01:23:40.721Z,0.00
2023-02-14T01:24:40.728Z,0.00
2023-02-14T01:25:40.739Z,0.00
2023-02-14T01:26:40.755Z,0.00
2023-02-14T01:27:40.762Z,0.00
2023-02-14T01:28:40.777Z,0.00
2023-02-14T01:29:40.785Z,0.00
2023-02-14T01:30:40.802Z,0.00
2023-02-14T01:31:40.951Z,0.00
2023-02-14T01:32:40.826Z,0.00
2023-02-14T01:33:40.835Z,0.00
2023-02-14T01:34:40.849Z,0.00
2023-02-14T01:35:40.857Z,0.00
2023-02-14T01:36:40.879Z,0.00
2023-02-14T01:37:40.880Z,0.00
2023-02-14T01:38:40.893Z,0.00
2023-02-14T01:39:40.913Z,0.00
2023-02-14T01:40:40.921Z,0.00
2023-02-14T01:41:40.952Z,0.00
2023-02-14T01:42:40.947Z,0.00
2023-02-14T01:43:40.954Z,0.00
2023-02-14T01:44:40.962Z,0.00
2023-02-14T01:45:41.014Z,0.00
2023-02-14T01:46:41.000Z,0.00
2023-02-14T01:47:41.007Z,0.00
2023-02-14T01:48:41.024Z,0.00
2023-02-14T01:49:41.043Z,0.00
2023-02-14T01:50:41.036Z,0.00
2023-02-14T01:51:41.048Z,0.00
2023-02-14T01:52:41.058Z,0.00
2023-02-14T01:53:41.073Z,0.00
2023-02-14T01:54:41.081Z,0.00
2023-02-14T01:55:41.093Z,0.00
2023-02-14T01:56:41.103Z,0.00
2023-02-14T01:57:41.116Z,0.00
2023-02-14T01:58:41.135Z,0.00
2023-02-14T01:59:41.140Z,0.00
2023-02-14T02:00:41.150Z,0.00
2023-02-14T02:01:41.194Z,0.00
2023-02-14T02:02:41.197Z,0.00
2023-02-14T02:03:41.187Z,0.00
2023-02-14T02:04:41.200Z,0.00
2023-02-14T02:05:41.212Z,0.00
2023-02-14T02:06:41.220Z,0.00
2023-02-14T02:07:41.234Z,0.00
2023-02-14T02:08:41.244Z,0.00
2023-02-14T02:09:41.259Z,0.00
2023-02-14T02:10:41.267Z,0.00
2023-02-14T02:11:41.287Z,0.00
2023-02-14T02:12:41.289Z,0.00
2023-02-14T02:13:41.309Z,0.00
2023-02-14T02:14:41.314Z,0.00
2023-02-14T02:15:41.325Z,0.00
2023-02-14T02:16:41.415Z,0.00
2023-02-14T02:17:41.348Z,0.00
2023-02-14T02:18:41.359Z,0.00
2023-02-14T02:19:41.371Z,0.00
2023-02-14T02:20:41.382Z,0.00
2023-02-14T02:21:41.394Z,0.00
2023-02-14T02:22:41.407Z,0.00
2023-02-14T02:23:41.418Z,0.00
2023-02-14T02:24:41.429Z,0.00
2023-02-14T02:25:41.441Z,0.00
2023-02-14T02:26:41.459Z,0.00
2023-02-14T02:27:41.464Z,0.00
2023-02-14T02:28:41.479Z,0.00
2023-02-14T02:29:41.492Z,0.00
2023-02-14T02:30:41.620Z,0.00
2023-02-14T02:31:41.672Z,0.00
2023-02-14T02:32:41.527Z,0.00
2023-02-14T02:33:41.533Z,0.00
2023-02-14T02:34:41.552Z,0.00
2023-02-14T02:35:41.569Z,0.00
2023-02-14T02:36:41.569Z,0.00
2023-02-14T02:37:41.581Z,0.00
2023-02-14T02:38:41.597Z,0.00
2023-02-14T02:39:41.604Z,0.00
2023-02-14T02:40:41.617Z,0.00
2023-02-14T02:41:41.635Z,0.00
2023-02-14T02:42:41.640Z,0.00
2023-02-14T02:43:41.655Z,0.00
2023-02-14T02:44:41.662Z,0.00
2023-02-14T02:45:41.707Z,0.00
2023-02-14T02:46:41.685Z,0.00
2023-02-14T02:47:41.699Z,0.00
2023-02-14T02:48:41.708Z,0.00
2023-02-14T02:49:41.742Z,0.00
2023-02-14T02:50:41.730Z,0.00
2023-02-14T02:51:41.745Z,0.00
2023-02-14T02:52:41.760Z,0.00
2023-02-14T02:53:41.771Z,0.00
2023-02-14T02:54:41.778Z,0.00
2023-02-14T02:55:41.790Z,0.00
2023-02-14T02:56:41.808Z,0.00
2023-02-14T02:57:41.813Z,0.00
2023-02-14T02:58:41.832Z,0.00
2023-02-14T02:59:41.844Z,0.00
2023-02-14T03:00:41.851Z,0.00
2023-02-14T03:01:41.893Z,0.00
2023-02-14T03:02:41.871Z,0.00
2023-02-14T03:03:41.890Z,0.00
2023-02-14T03:04:41.973Z,0.00
2023-02-14T03:05:41.906Z,0.00
2023-02-14T03:06:41.917Z,0.00
2023-02-14T03:07:41.939Z,0.00
2023-02-14T03:08:41.944Z,0.00
2023-02-14T03:09:41.951Z,0.00
2023-02-14T03:10:41.964Z,0.00
2023-02-14T03:11:41.976Z,0.00
2023-02-14T03:12:41.985Z,0.00
2023-02-14T03:13:41.998Z,0.00
2023-02-14T03:14:42.025Z,0.00
2023-02-14T03:15:42.075Z,0.00
2023-02-14T03:16:42.034Z,0.00
2023-02-14T03:17:42.043Z,0.00
2023-02-14T03:18:42.072Z,0.00
2023-02-14T03:19:42.081Z,0.00
2023-02-14T03:20:42.076Z,0.00
2023-02-14T03:21:42.106Z,0.00
2023-02-14T03:22:42.117Z,0.00
2023-02-14T03:23:42.114Z,0.00
2023-02-14T03:24:42.126Z,0.00
2023-02-14T03:25:42.137Z,0.00
2023-02-14T03:26:42.149Z,0.00
2023-02-14T03:27:42.160Z,0.00
2023-02-14T03:28:42.176Z,0.00
2023-02-14T03:29:42.192Z,0.00
2023-02-14T03:30:42.396Z,0.00
2023-02-14T03:31:42.336Z,0.00
2023-02-14T03:32:42.229Z,0.00
2023-02-14T03:33:42.239Z,0.00
2023-02-14T03:34:42.243Z,0.00
2023-02-14T03:35:42.256Z,0.00
2023-02-14T03:36:42.266Z,0.00
2023-02-14T03:37:42.275Z,0.00
2023-02-14T03:38:42.290Z,0.00
2023-02-14T03:39:42.300Z,0.00
2023-02-14T03:40:42.311Z,0.00
2023-02-14T03:41:42.338Z,0.00
2023-02-14T03:42:42.335Z,0.00
2023-02-14T03:43:42.352Z,0.00
2023-02-14T03:44:42.356Z,0.00
2023-02-14T03:45:42.368Z,0.00
2023-02-14T03:46:42.413Z,0.00
2023-02-14T03:47:42.392Z,0.00
2023-02-14T03:48:42.403Z,0.00
2023-02-14T03:49:42.418Z,0.00
2023-02-14T03:50:42.426Z,0.00
2023-02-14T03:51:42.444Z,0.00
2023-02-14T03:52:42.450Z,0.00
2023-02-14T03:53:42.462Z,0.00
2023-02-14T03:54:42.476Z,0.00
2023-02-14T03:55:42.487Z,0.00
2023-02-14T03:56:42.506Z,0.00
2023-02-14T03:57:42.508Z,0.00
2023-02-14T03:58:42.519Z,0.00
2023-02-14T03:59:42.530Z,0.00
2023-02-14T04:00:42.541Z,0.00
2023-02-14T04:01:42.637Z,0.00
2023-02-14T04:02:42.568Z,0.00
2023-02-14T04:03:42.676Z,0.00
2023-02-14T04:04:42.588Z,0.00
2023-02-14T04:05:42.600Z,0.00
2023-02-14T04:06:42.621Z,0.00
2023-02-14T04:07:42.623Z,0.00
2023-02-14T04:08:42.643Z,0.00
2023-02-14T04:09:42.647Z,0.00
2023-02-14T04:10:42.667Z,0.00
2023-02-14T04:11:42.670Z,0.00
2023-02-14T04:12:42.680Z,0.00
2023-02-14T04:13:42.697Z,0.00
2023-02-14T04:14:42.709Z,0.00
2023-02-14T04:15:42.752Z,0.00
2023-02-14T04:16:42.728Z,0.00
2023-02-14T04:17:42.741Z,0.00
2023-02-14T04:18:42.770Z,0.00
2023-02-14T04:19:42.763Z,0.00
2023-02-14T04:20:42.773Z,0.00
2023-02-14T04:21:42.785Z,0.00
2023-02-14T04:22:42.804Z,0.00
2023-02-14T04:23:42.830Z,0.00
2023-02-14T04:24:42.836Z,0.00
2023-02-14T04:25:42.839Z,0.00
2023-02-14T04:26:42.852Z,0.00
2023-02-14T04:27:42.863Z,0.00
2023-02-14T04:28:42.870Z,0.00
2023-02-14T04:29:42.893Z,0.00
2023-02-14T04:30:42.896Z,0.00
2023-02-14T04:31:43.031Z,0.00
2023-02-14T04:32:42.923Z,0.00
2023-02-14T04:33:42.921Z,0.00
2023-02-14T04:34:42.940Z,0.00
2023-02-14T04:35:42.952Z,0.00
2023-02-14T04:36:42.958Z,0.00
2023-02-14T04:37:42.970Z,0.00
2023-02-14T04:38:42.980Z,0.00
2023-02-14T04:39:42.997Z,0.00
2023-02-14T04:40:43.004Z,0.00
2023-02-14T04:41:43.017Z,0.00
2023-02-14T04:42:43.029Z,0.00
2023-02-14T04:43:43.037Z,0.00
2023-02-14T04:44:43.054Z,0.00
2023-02-14T04:45:43.063Z,0.00
2023-02-14T04:46:43.169Z,0.00
2023-02-14T04:47:43.098Z,0.00
2023-02-14T04:48:43.095Z,0.00
2023-02-14T04:49:43.116Z,0.00
2023-02-14T04:50:43.116Z,0.00
2023-02-14T04:51:43.127Z,0.00
2023-02-14T04:52:43.151Z,0.00
2023-02-14T04:53:43.160Z,0.00
2023-02-14T04:54:43.168Z,0.00
2023-02-14T04:55:43.179Z,0.00
2023-02-14T04:56:43.189Z,0.00
2023-02-14T04:57:43.203Z,0.00
2023-02-14T04:58:43.215Z,0.00
2023-02-14T04:59:43.222Z,0.00
2023-02-14T05:00:43.269Z,0.00
2023-02-14T05:01:43.286Z,0.00
2023-02-14T05:02:43.255Z,0.00
2023-02-14T05:03:43.269Z,0.00
2023-02-14T05:04:43.280Z,0.00
2023-02-14T05:05:43.296Z,0.00
2023-02-14T05:06:43.319Z,0.00
2023-02-14T05:07:43.313Z,0.00
2023-02-14T05:08:43.323Z,0.00
2023-02-14T05:09:43.336Z,0.00
2023-02-14T05:10:43.359Z,0.00
2023-02-14T05:11:43.359Z,0.00
2023-02-14T05:12:43.372Z,0.00
2023-02-14T05:13:43.380Z,0.00
2023-02-14T05:14:43.393Z,0.00
2023-02-14T05:15:43.410Z,0.00
2023-02-14T05:16:43.492Z,0.00
2023-02-14T05:17:43.432Z,0.00
2023-02-14T05:18:43.440Z,0.00
2023-02-14T05:19:43.453Z,0.00
2023-02-14T05:20:43.461Z,0.00
2023-02-14T05:21:43.480Z,0.00
2023-02-14T05:22:43.484Z,0.00
2023-02-14T05:23:43.494Z,0.00
2023-02-14T05:24:43.508Z,0.00
2023-02-14T05:25:43.521Z,0.00
2023-02-14T05:26:43.529Z,0.00
2023-02-14T05:27:43.543Z,0.00
2023-02-14T05:28:43.551Z,0.00
2023-02-14T05:29:43.582Z,0.00
2023-02-14T05:30:43.682Z,0.00
2023-02-14T05:31:43.672Z,0.00
2023-02-14T05:32:43.595Z,0.00
2023-02-14T05:33:43.610Z,0.00
2023-02-14T05:34:43.621Z,0.00
2023-02-14T05:35:43.631Z,0.00
2023-02-14T05:36:43.644Z,0.00
2023-02-14T05:37:43.654Z,0.00
2023-02-14T05:38:43.667Z,0.00
2023-02-14T05:39:43.678Z,0.00
2023-02-14T05:40:43.691Z,0.00
2023-02-14T05:41:43.709Z,0.00
2023-02-14T05:42:43.709Z,0.00
2023-02-14T05:43:43.726Z,0.00
2023-02-14T05:44:43.737Z,0.00
2023-02-14T05:45:43.783Z,0.00
2023-02-14T05:46:43.756Z,0.00
2023-02-14T05:47:43.770Z,0.00
2023-02-14T05:48:43.782Z,4.00
2023-02-14T05:49:43.792Z,0.00
2023-02-14T05:50:43.804Z,0.00
2023-02-14T05:51:43.825Z,4.00
2023-02-14T05:52:43.825Z,0.00
2023-02-14T05:53:43.841Z,4.00
2023-02-14T05:54:43.856Z,0.00
2023-02-14T05:55:43.870Z,4.00
2023-02-14T05:56:43.896Z,4.00
2023-02-14T05:57:43.887Z,4.00
2023-02-14T05:58:43.907Z,4.00
2023-02-14T05:59:43.908Z,8.00
2023-02-14T06:00:43.929Z,4.00
2023-02-14T06:01:43.969Z,8.00
2023-02-14T06:02:43.949Z,8.00
2023-02-14T06:03:43.954Z,12.00
2023-02-14T06:04:44.001Z,16.00
2023-02-14T06:05:43.977Z,16.00
2023-02-14T06:06:43.990Z,20.00
2023-02-14T06:07:44.000Z,20.00
2023-02-14T06:08:44.016Z,28.00
2023-02-14T06:09:44.021Z,32.00
2023-02-14T06:10:44.035Z,36.00
2023-02-14T06:11:44.055Z,40.00
2023-02-14T06:12:44.059Z,48.00
2023-02-14T06:13:44.074Z,52.00
2023-02-14T06:14:44.080Z,60.00
2023-02-14T06:15:44.090Z,68.00
2023-02-14T06:16:44.140Z,72.00
2023-02-14T06:17:44.119Z,84.00
2023-02-14T06:18:44.128Z,92.00
2023-02-14T06:19:44.141Z,104.00
2023-02-14T06:20:44.150Z,112.00
2023-02-14T06:21:44.166Z,124.00
2023-02-14T06:22:44.175Z,140.00
2023-02-14T06:23:44.182Z,152.00
2023-02-14T06:24:44.206Z,168.00
2023-02-14T06:25:44.209Z,184.00
2023-02-14T06:26:44.218Z,200.00
2023-02-14T06:27:44.232Z,212.00
2023-02-14T06:28:44.240Z,232.00
2023-02-14T06:29:44.252Z,248.00
2023-02-14T06:30:44.418Z,268.00
2023-02-14T06:31:44.338Z,292.00
2023-02-14T06:32:44.285Z,308.00
2023-02-14T06:33:44.296Z,328.00
2023-02-14T06:34:44.311Z,340.00
2023-02-14T06:35:44.320Z,356.00
2023-02-14T06:36:44.338Z,380.00
2023-02-14T06:37:44.342Z,408.00
2023-02-14T06:38:44.367Z,436.00
2023-02-14T06:39:44.366Z,464.00
2023-02-14T06:40:44.378Z,484.00
2023-02-14T06:41:44.388Z,504.00
2023-02-14T06:42:44.411Z,536.00
2023-02-14T06:43:44.411Z,564.00
2023-02-14T06:44:44.421Z,600.00
2023-02-14T06:45:44.553Z,628.00
2023-02-14T06:46:44.449Z,656.00
2023-02-14T06:47:44.457Z,700.00
2023-02-14T06:48:44.471Z,732.00
2023-02-14T06:49:44.479Z,756.00
2023-02-14T06:50:44.493Z,776.00
2023-02-14T06:51:44.502Z,792.00
2023-02-14T06:52:44.561Z,812.00
2023-02-14T06:53:44.530Z,840.00
2023-02-14T06:54:44.548Z,872.00
2023-02-14T06:55:44.547Z,896.00
2023-02-14T06:56:44.559Z,920.00
2023-02-14T06:57:44.571Z,940.00
2023-02-14T06:58:44.590Z,980.00
2023-02-14T06:59:44.610Z,1028.00
2023-02-14T07:00:44.608Z,1068.00
2023-02-14T07:01:44.656Z,1092.00
2023-02-14T07:02:44.691Z,1120.00
2023-02-14T07:03:44.659Z,1152.00
2023-02-14T07:04:44.650Z,1200.00
2023-02-14T07:05:44.660Z,1252.00
2023-02-14T07:06:44.676Z,1288.00
2023-02-14T07:07:44.685Z,1312.00
2023-02-14T07:08:44.706Z,1328.00
2023-02-14T07:09:44.718Z,1348.00
2023-02-14T07:10:44.727Z,1360.00
2023-02-14T07:11:44.729Z,1356.00
2023-02-14T07:12:44.740Z,1392.00
2023-02-14T07:13:44.753Z,1468.00
2023-02-14T07:14:44.779Z,1568.00
2023-02-14T07:15:44.810Z,1684.00
2023-02-14T07:16:44.785Z,1784.00
2023-02-14T07:17:44.797Z,1824.00
2023-02-14T07:18:44.812Z,1824.00
2023-02-14T07:19:44.820Z,1804.00
2023-02-14T07:20:44.837Z,1784.00
2023-02-14T07:21:44.844Z,1824.00
2023-02-14T07:22:44.858Z,1948.00
2023-02-14T07:23:44.868Z,2004.00
2023-02-14T07:24:44.882Z,1976.00
2023-02-14T07:25:44.891Z,1956.00
2023-02-14T07:26:44.903Z,2020.00
2023-02-14T07:27:44.920Z,2120.00
2023-02-14T07:28:45.216Z,1964.00
2023-02-14T07:29:44.937Z,2032.00
2023-02-14T07:30:44.995Z,2140.00
2023-02-14T07:31:45.066Z,2268.00
2023-02-14T07:32:44.972Z,2416.00
2023-02-14T07:33:44.988Z,2444.00
2023-02-14T07:34:45.004Z,2464.00
2023-02-14T07:35:45.026Z,2548.00
2023-02-14T07:36:45.021Z,2664.00
2023-02-14T07:37:45.029Z,2752.00
2023-02-14T07:38:45.046Z,2776.00
2023-02-14T07:39:45.056Z,2768.00
2023-02-14T07:40:45.071Z,2792.00
2023-02-14T07:41:45.081Z,2904.00
2023-02-14T07:42:45.089Z,2952.00
2023-02-14T07:43:45.105Z,2976.00
2023-02-14T07:44:45.114Z,3016.00
2023-02-14T07:45:45.134Z,3140.00
2023-02-14T07:46:45.135Z,3288.00
2023-02-14T07:47:45.152Z,3416.00
2023-02-14T07:48:45.173Z,3480.00
2023-02-14T07:49:45.172Z,3488.00
2023-02-14T07:50:45.195Z,3508.00
2023-02-14T07:51:45.206Z,3560.00
2023-02-14T07:52:45.211Z,3628.00
2023-02-14T07:53:45.226Z,3660.00
2023-02-14T07:54:45.235Z,3684.00
2023-02-14T07:55:45.246Z,3764.00
2023-02-14T07:56:45.256Z,3836.00
2023-02-14T07:57:45.273Z,3856.00
2023-02-14T07:58:45.293Z,3880.00
2023-02-14T07:59:45.295Z,3908.00
2023-02-14T08:00:45.304Z,3956.00
2023-02-14T08:01:45.401Z,4000.00
2023-02-14T08:02:45.331Z,4032.00
2023-02-14T08:03:45.341Z,4044.00
2023-02-14T08:04:45.379Z,4080.00
2023-02-14T08:05:45.386Z,4168.00
2023-02-14T08:06:45.382Z,4260.00
2023-02-14T08:07:45.393Z,4272.00
2023-02-14T08:08:45.416Z,4228.00
2023-02-14T08:09:45.417Z,4248.00
2023-02-14T08:10:45.429Z,4384.00
2023-02-14T08:11:45.441Z,4516.00
2023-02-14T08:12:45.455Z,4692.00
2023-02-14T08:13:45.463Z,4760.00
2023-02-14T08:14:45.478Z,4796.00
2023-02-14T08:15:45.538Z,4804.00
2023-02-14T08:16:45.511Z,4944.00
2023-02-14T08:17:45.519Z,5008.00
2023-02-14T08:18:45.527Z,5028.00
2023-02-14T08:19:45.540Z,5028.00
2023-02-14T08:20:45.553Z,5036.00
2023-02-14T08:21:45.562Z,5064.00
2023-02-14T08:22:45.579Z,5100.00
2023-02-14T08:23:47.493Z,5104.00
2023-02-14T08:24:45.602Z,5092.00
2023-02-14T08:25:45.612Z,5080.00
2023-02-14T08:26:45.625Z,5084.00
2023-02-14T08:27:45.639Z,5064.00
2023-02-14T08:28:45.652Z,5012.00
2023-02-14T08:29:45.665Z,4988.00
2023-02-14T08:30:45.682Z,4976.00
2023-02-14T08:31:45.836Z,5004.00
2023-02-14T08:32:45.792Z,5056.00
2023-02-14T08:33:45.725Z,5136.00
2023-02-14T08:34:45.730Z,5192.00
2023-02-14T08:35:45.741Z,5228.00
2023-02-14T08:36:45.759Z,5300.00
2023-02-14T08:37:45.766Z,5420.00
2023-02-14T08:38:45.784Z,5504.00
2023-02-14T08:39:45.791Z,5492.00
2023-02-14T08:40:45.805Z,5512.00
2023-02-14T08:41:45.826Z,5636.00
2023-02-14T08:42:45.831Z,5728.00
2023-02-14T08:43:45.844Z,5724.00
2023-02-14T08:44:45.862Z,5736.00
2023-02-14T08:45:45.871Z,5856.00
2023-02-14T08:46:45.939Z,6020.00
2023-02-14T08:47:45.905Z,6112.00
2023-02-14T08:48:45.910Z,6164.00
2023-02-14T08:49:45.927Z,6208.00
2023-02-14T08:50:45.965Z,6208.00
2023-02-14T08:51:45.961Z,6152.00
2023-02-14T08:52:45.984Z,6104.00
2023-02-14T08:53:45.995Z,6120.00
2023-02-14T08:54:45.990Z,6196.00
2023-02-14T08:55:46.011Z,6276.00
2023-02-14T08:56:46.047Z,6312.00
2023-02-14T08:57:46.053Z,6316.00
2023-02-14T08:58:46.056Z,6260.00
2023-02-14T08:59:46.063Z,6152.00
2023-02-14T09:00:46.126Z,6084.00
2023-02-14T09:01:46.123Z,6036.00
2023-02-14T09:02:46.095Z,6016.00
2023-02-14T09:03:46.182Z,5940.00
2023-02-14T09:04:46.128Z,5836.00
2023-02-14T09:05:46.164Z,5756.00
2023-02-14T09:06:46.162Z,5712.00
2023-02-14T09:07:46.164Z,5692.00
2023-02-14T09:08:46.211Z,5716.00
2023-02-14T09:09:46.393Z,5728.00
2023-02-14T09:10:46.203Z,5744.00
2023-02-14T09:11:46.218Z,5796.00
2023-02-14T09:12:46.232Z,5884.00
2023-02-14T09:13:46.246Z,5996.00
2023-02-14T09:14:46.301Z,6100.00
2023-02-14T09:15:46.273Z,6192.00
2023-02-14T09:16:46.360Z,6320.00
2023-02-14T09:17:46.368Z,6500.00
2023-02-14T09:18:46.346Z,6696.00
2023-02-14T09:19:46.378Z,6876.00
2023-02-14T09:20:46.348Z,7004.00
2023-02-14T09:21:46.417Z,7176.00
2023-02-14T09:22:48.432Z,7256.00
2023-02-14T09:23:46.392Z,7304.00
2023-02-14T09:24:46.395Z,7452.00
2023-02-14T09:25:46.409Z,7644.00
2023-02-14T09:26:46.421Z,7684.00
2023-02-14T09:27:46.435Z,7552.00
2023-02-14T09:28:46.462Z,7428.00
2023-02-14T09:29:46.466Z,7368.00
2023-02-14T09:30:46.475Z,7272.00
2023-02-14T09:31:46.566Z,7224.00
2023-02-14T09:32:46.512Z,7140.00
2023-02-14T09:33:46.521Z,7032.00
2023-02-14T09:34:46.534Z,7008.00
2023-02-14T09:35:46.547Z,7012.00
2023-02-14T09:36:46.560Z,6984.00
2023-02-14T09:37:46.574Z,7004.00
2023-02-14T09:38:46.594Z,6892.00
2023-02-14T09:39:46.613Z,6948.00
2023-02-14T09:40:46.623Z,6948.00
2023-02-14T09:41:46.633Z,6908.00
2023-02-14T09:42:46.642Z,6896.00
2023-02-14T09:43:46.661Z,6864.00
2023-02-14T09:44:46.682Z,6856.00
2023-02-14T09:45:46.762Z,6800.00
2023-02-14T09:46:46.716Z,6732.00
2023-02-14T09:47:46.715Z,6800.00
2023-02-14T09:48:46.781Z,6944.00
2023-02-14T09:49:46.890Z,7044.00
2023-02-14T09:50:46.759Z,7140.00
2023-02-14T09:51:46.770Z,7320.00
2023-02-14T09:52:46.785Z,7400.00
2023-02-14T09:53:46.800Z,7592.00
2023-02-14T09:54:46.814Z,7696.00
2023-02-14T09:55:46.827Z,7852.00
2023-02-14T09:56:51.315Z,7920.00
2023-02-14T09:57:46.854Z,7920.00
2023-02-14T09:58:46.877Z,7880.00
2023-02-14T09:59:46.889Z,7708.00
2023-02-14T10:00:46.958Z,7660.00
2023-02-14T10:01:46.976Z,7804.00
2023-02-14T10:02:46.944Z,7944.00
2023-02-14T10:03:46.940Z,8012.00
2023-02-14T10:04:46.954Z,7944.00
2023-02-14T10:05:46.970Z,7860.00
2023-02-14T10:06:46.997Z,7940.00
2023-02-14T10:07:46.999Z,8032.00
2023-02-14T10:08:47.014Z,8140.00
2023-02-14T10:09:47.027Z,8264.00
2023-02-14T10:10:47.041Z,8424.00
2023-02-14T10:11:47.055Z,8416.00
2023-02-14T10:12:47.067Z,8388.00
2023-02-14T10:13:47.082Z,8452.00
2023-02-14T10:14:47.095Z,8592.00
2023-02-14T10:15:47.112Z,8680.00
2023-02-14T10:16:47.157Z,8728.00
2023-02-14T10:17:47.142Z,8804.00
2023-02-14T10:18:47.159Z,8984.00
2023-02-14T10:19:47.168Z,9064.00
2023-02-14T10:20:47.181Z,9056.00
2023-02-14T10:21:48.004Z,8828.00
2023-02-14T10:22:47.216Z,8840.00
2023-02-14T10:23:47.232Z,9028.00
2023-02-14T10:24:47.240Z,8832.00
2023-02-14T10:25:47.268Z,8724.00
2023-02-14T10:26:47.272Z,8444.00
2023-02-14T10:27:47.301Z,7932.00
2023-02-14T10:28:47.298Z,7660.00
2023-02-14T10:29:47.323Z,7872.00
2023-02-14T10:30:47.453Z,8424.00
2023-02-14T10:31:47.422Z,8988.00
2023-02-14T10:32:47.356Z,8960.00
2023-02-14T10:33:47.377Z,8800.00
2023-02-14T10:34:47.386Z,8552.00
2023-02-14T10:35:47.402Z,8288.00
2023-02-14T10:36:47.415Z,8188.00
2023-02-14T10:37:47.431Z,7512.00
2023-02-14T10:38:47.453Z,6776.00
2023-02-14T10:39:47.461Z,6832.00
2023-02-14T10:40:47.472Z,7064.00
2023-02-14T10:41:47.488Z,7536.00
2023-02-14T10:42:47.521Z,8184.00
2023-02-14T10:43:47.519Z,8664.00
2023-02-14T10:44:47.530Z,8828.00
2023-02-14T10:45:47.562Z,8656.00
2023-02-14T10:46:47.560Z,7764.00
2023-02-14T10:47:47.578Z,7080.00
2023-02-14T10:48:47.605Z,8300.00
2023-02-14T10:49:47.605Z,7808.00
2023-02-14T10:50:47.623Z,7680.00
2023-02-14T10:51:47.636Z,8772.00
2023-02-14T10:52:47.652Z,8788.00
2023-02-14T10:53:47.664Z,8644.00
2023-02-14T10:54:47.680Z,8532.00
2023-02-14T10:55:47.695Z,8460.00
2023-02-14T10:56:47.709Z,8468.00
2023-02-14T10:57:47.725Z,8540.00
2023-02-14T10:58:47.742Z,8624.00
2023-02-14T10:59:47.758Z,8720.00
2023-02-14T11:00:47.771Z,8828.00
2023-02-14T11:01:47.786Z,8908.00
2023-02-14T11:02:47.797Z,8808.00
2023-02-14T11:03:47.908Z,8956.00
2023-02-14T11:04:47.834Z,8716.00
2023-02-14T11:05:47.844Z,8532.00
2023-02-14T11:06:47.855Z,8476.00
2023-02-14T11:07:47.870Z,8648.00
2023-02-14T11:08:47.890Z,8944.00
2023-02-14T11:09:47.901Z,9264.00
2023-02-14T11:10:47.915Z,9184.00
2023-02-14T11:11:47.928Z,8864.00
2023-02-14T11:12:47.945Z,9116.00
2023-02-14T11:13:47.956Z,9192.00
2023-02-14T11:14:47.972Z,9108.00
2023-02-14T11:15:47.986Z,8884.00
2023-02-14T11:16:48.017Z,8556.00
2023-02-14T11:17:48.015Z,8260.00
2023-02-14T11:18:48.031Z,8132.00
2023-02-14T11:19:48.043Z,8112.00
2023-02-14T11:20:48.059Z,8128.00
2023-02-14T11:21:48.072Z,8052.00
2023-02-14T11:22:48.085Z,8084.00
2023-02-14T11:23:48.097Z,8220.00
2023-02-14T11:24:48.111Z,8420.00
2023-02-14T11:25:48.128Z,8584.00
2023-02-14T11:26:48.146Z,8688.00
2023-02-14T11:27:48.161Z,8764.00
2023-02-14T11:28:48.171Z,8808.00
2023-02-14T11:29:48.307Z,8856.00
2023-02-14T11:30:48.253Z,8840.00
2023-02-14T11:31:48.305Z,8804.00
2023-02-14T11:32:48.232Z,8828.00
2023-02-14T11:33:48.244Z,8796.00
2023-02-14T11:34:48.263Z,8676.00
2023-02-14T11:35:48.275Z,8316.00
2023-02-14T11:36:48.287Z,8268.00
2023-02-14T11:37:48.303Z,8632.00
2023-02-14T11:38:48.321Z,8696.00
2023-02-14T11:39:48.333Z,8760.00
2023-02-14T11:40:48.350Z,8648.00
2023-02-14T11:41:48.381Z,8436.00
2023-02-14T11:42:51.674Z,8264.00
2023-02-14T11:43:48.387Z,8152.00
2023-02-14T11:44:48.404Z,8100.00
2023-02-14T11:45:48.479Z,8136.00
2023-02-14T11:46:53.382Z,8152.00
2023-02-14T11:47:48.449Z,8096.00
2023-02-14T11:48:48.464Z,8056.00
2023-02-14T11:49:48.477Z,8064.00
2023-02-14T11:50:48.492Z,8076.00
2023-02-14T11:51:48.505Z,8160.00
2023-02-14T11:52:48.533Z,8288.00
2023-02-14T11:53:48.557Z,8356.00
2023-02-14T11:54:48.566Z,8252.00
2023-02-14T11:55:48.565Z,8004.00
2023-02-14T11:56:48.585Z,7780.00
2023-02-14T11:57:48.597Z,7692.00
2023-02-14T11:58:48.624Z,7732.00
2023-02-14T11:59:48.626Z,7836.00
2023-02-14T12:00:48.638Z,7960.00
2023-02-14T12:01:48.650Z,8128.00
2023-02-14T12:02:48.689Z,8152.00
2023-02-14T12:03:48.699Z,7936.00
2023-02-14T12:04:48.697Z,7908.00
2023-02-14T12:05:48.747Z,7884.00
2023-02-14T12:06:48.736Z,7808.00
2023-02-14T12:07:48.745Z,7812.00
2023-02-14T12:08:48.755Z,7852.00
2023-02-14T12:09:48.773Z,7928.00
2023-02-14T12:10:48.787Z,8032.00
2023-02-14T12:11:48.799Z,8140.00
2023-02-14T12:12:48.812Z,8308.00
2023-02-14T12:13:48.828Z,8416.00
2023-02-14T12:14:48.852Z,8428.00
2023-02-14T12:15:48.898Z,8372.00
2023-02-14T12:16:48.871Z,8376.00
2023-02-14T12:17:48.886Z,8540.00
2023-02-14T12:18:48.915Z,8692.00
2023-02-14T12:19:48.928Z,8808.00
2023-02-14T12:20:48.931Z,8776.00
2023-02-14T12:21:48.954Z,8776.00
2023-02-14T12:22:48.967Z,8756.00
2023-02-14T12:23:48.974Z,8620.00
2023-02-14T12:24:48.992Z,8440.00
2023-02-14T12:25:49.005Z,8464.00
2023-02-14T12:26:49.018Z,8572.00
2023-02-14T12:27:49.034Z,8524.00
2023-02-14T12:28:49.048Z,8268.00
2023-02-14T12:29:49.081Z,8020.00
2023-02-14T12:30:49.159Z,7920.00
2023-02-14T12:31:49.169Z,7816.00
2023-02-14T12:32:49.101Z,7676.00
2023-02-14T12:33:50.508Z,7584.00
2023-02-14T12:34:49.130Z,7604.00
2023-02-14T12:35:49.148Z,7732.00
2023-02-14T12:36:49.157Z,7944.00
2023-02-14T12:37:56.024Z,8096.00
2023-02-14T12:38:49.192Z,8024.00
2023-02-14T12:39:49.203Z,7888.00
2023-02-14T12:40:49.217Z,7636.00